Huvudsida
METAR-TAF:

METAR-TAF

Flygplatser :

Rabat-Salé Airport

Rabat, Marocko

latitud: 34-03N, longitud: 006-46W, höjd: 84 m

Aktuellt väderrapport

Denna rapport gjordes för 6 minuter sedan, klockan 23:30 UTC
Vind 2 kt varierande vindriktning
Temperatur 9°C
Fuktighet 93%
Tryck 1026 hPa
Sikt 10 km eller mer
Inga moln under 1 500 m eller inga cumulonimbus

METAR: GMME 152330Z VRB02KT CAVOK 09/08 Q1026 NOSIG

Tid: 23:36 (23:36 UTC)

Väderprognos

Denna rapport gjordes för 36 minuter sedan, klockan 23:00 UTC
Prognos gäller från 16 kl. 00 UTC till 17 kl. 06 UTC
Vind 4 kt från nord
Sikt: 8000 m
Sannolikhet 30% :
Temporärt
från 16 kl. 04 UTC till 16 kl. 08 UTC
Sikt: 3000 m
fuktdis

TAF: GMME 152300Z 1600/1706 36004KT 8000 NSC PROB30 TEMPO 1604/1608 3000 BR

Aktuella väderrapporter och prognoser från 4000 flygplatser (METAR- och TAF-rapporter).

De tillgängliga stationerna syns som gula och röda prickar på kartan.

För musen över prickarna för att se namnen på stationerna.

Klicka sedan för att få väderrapporter och prognoser.

För att ändra kartan: Klicka på de gröna knapparna med ett svart kors på för att zooma in; den gröna knappen med ett streck på för att zooma ut; eller på de gröna pilarna för angränsande kartor.


METAR-TAF: